createdAt,value
2017-12-28T00:00:11.107Z,4.20
2017-12-28T00:02:37.063Z,4.20
2017-12-28T00:05:03.057Z,4.30
2017-12-28T00:07:29.036Z,4.20
2017-12-28T00:09:55.769Z,4.50
2017-12-28T00:12:22.504Z,4.70
2017-12-28T00:14:49.219Z,4.60
2017-12-28T00:17:15.265Z,4.50
2017-12-28T00:19:42.004Z,4.50
2017-12-28T00:22:08.013Z,4.50
2017-12-28T00:24:35.158Z,4.50
2017-12-28T00:27:01.137Z,4.30
2017-12-28T00:29:27.131Z,4.30
2017-12-28T00:31:53.864Z,4.60
2017-12-28T00:34:20.595Z,4.70
2017-12-28T00:36:46.598Z,4.70
2017-12-28T00:39:12.586Z,4.60
2017-12-28T00:41:38.647Z,4.40
2017-12-28T00:44:04.653Z,4.20
2017-12-28T00:46:30.673Z,4.30
2017-12-28T00:48:56.648Z,4.20
2017-12-28T00:51:22.643Z,4.30
2017-12-28T00:53:48.849Z,4.30
2017-12-28T00:56:14.848Z,4.10
2017-12-28T00:58:40.823Z,3.90
2017-12-28T01:01:07.775Z,3.90
2017-12-28T01:03:34.484Z,3.90
2017-12-28T01:06:00.493Z,3.90
2017-12-28T01:08:26.864Z,3.90
2017-12-28T01:10:53.604Z,3.90
2017-12-28T01:13:20.316Z,3.90
2017-12-28T01:15:46.291Z,3.90
2017-12-28T01:18:12.308Z,4.10
2017-12-28T01:20:38.328Z,4.20
2017-12-28T01:23:04.634Z,4.20
2017-12-28T01:25:31.369Z,4.40
2017-12-28T01:27:58.144Z,4.40
2017-12-28T01:30:24.176Z,4.30
2017-12-28T01:32:50.157Z,4.30
2017-12-28T01:35:16.867Z,4.60
2017-12-28T01:37:42.875Z,4.60
2017-12-28T01:40:08.859Z,4.70
2017-12-28T01:42:34.824Z,4.70
2017-12-28T01:45:00.846Z,4.70
2017-12-28T01:47:26.814Z,4.70
2017-12-28T01:49:53.540Z,4.90
2017-12-28T01:52:20.268Z,4.90
2017-12-28T01:54:46.440Z,4.90
2017-12-28T01:57:12.419Z,5.00
2017-12-28T01:59:38.376Z,5.00
2017-12-28T02:02:04.374Z,5.10
2017-12-28T02:04:31.157Z,5.10
2017-12-28T02:06:57.108Z,5.10
2017-12-28T02:09:23.076Z,5.10
2017-12-28T02:11:49.064Z,5.20
2017-12-28T02:14:15.072Z,4.80
2017-12-28T02:16:41.044Z,4.70
2017-12-28T02:19:07.038Z,4.70
2017-12-28T02:21:33.751Z,4.70
2017-12-28T02:23:59.720Z,4.70
2017-12-28T02:26:25.928Z,4.70
2017-12-28T02:28:52.630Z,4.30
2017-12-28T02:31:18.592Z,4.30
2017-12-28T02:33:45.640Z,4.50
2017-12-28T02:36:12.349Z,4.40
2017-12-28T02:38:38.313Z,4.40
2017-12-28T02:41:04.320Z,4.40
2017-12-28T02:43:31.048Z,4.50
2017-12-28T02:45:57.769Z,4.60
2017-12-28T02:48:23.765Z,4.60
2017-12-28T02:50:50.756Z,4.70
2017-12-28T02:53:17.471Z,5.00
2017-12-28T02:55:43.456Z,5.00
2017-12-28T02:58:09.436Z,5.10
2017-12-28T03:00:36.152Z,5.20
2017-12-28T03:03:02.117Z,5.20
2017-12-28T03:05:28.153Z,5.20
2017-12-28T03:07:54.141Z,5.20
2017-12-28T03:10:20.857Z,5.30
2017-12-28T03:12:46.854Z,5.30
2017-12-28T03:15:12.809Z,5.20
2017-12-28T03:17:38.802Z,5.10
2017-12-28T03:20:04.816Z,5.00
2017-12-28T03:22:30.817Z,5.20
2017-12-28T03:24:56.836Z,5.20
2017-12-28T03:27:22.851Z,5.40
2017-12-28T03:29:48.822Z,5.50
2017-12-28T03:32:14.801Z,5.50
2017-12-28T03:34:41.135Z,5.50
2017-12-28T03:37:07.115Z,5.60
2017-12-28T03:39:33.087Z,5.60
2017-12-28T03:41:59.077Z,5.60
2017-12-28T03:44:25.828Z,5.50
2017-12-28T03:46:52.535Z,5.50
2017-12-28T03:49:18.512Z,5.50
2017-12-28T03:51:44.489Z,5.50
2017-12-28T03:54:11.336Z,5.60
2017-12-28T03:56:38.060Z,5.60
2017-12-28T03:59:04.020Z,5.60
2017-12-28T04:01:29.993Z,5.50
2017-12-28T04:03:55.999Z,5.60
2017-12-28T04:06:21.967Z,5.60
2017-12-28T04:08:48.720Z,5.40
2017-12-28T04:11:14.717Z,5.40
2017-12-28T04:13:41.440Z,5.40
2017-12-28T04:16:07.463Z,5.40
2017-12-28T04:18:33.452Z,5.30
2017-12-28T04:20:59.462Z,5.40
2017-12-28T04:23:25.432Z,5.40
2017-12-28T04:25:51.429Z,5.20
2017-12-28T04:28:17.396Z,5.30
2017-12-28T04:30:44.324Z,5.50
2017-12-28T04:33:10.283Z,5.50
2017-12-28T04:35:36.245Z,5.50
2017-12-28T04:38:02.225Z,5.60
2017-12-28T04:40:28.192Z,5.50
2017-12-28T04:42:54.203Z,5.50
2017-12-28T04:45:20.156Z,5.50
2017-12-28T04:47:46.149Z,5.50
2017-12-28T04:50:12.172Z,5.50
2017-12-28T04:52:38.156Z,5.50
2017-12-28T04:55:04.180Z,5.40
2017-12-28T04:57:30.143Z,5.40
2017-12-28T04:59:56.113Z,5.50
2017-12-28T05:02:22.088Z,5.50
2017-12-28T05:04:48.099Z,5.50
2017-12-28T05:07:14.132Z,5.40
2017-12-28T05:09:40.108Z,5.40
2017-12-28T05:12:07.152Z,5.50
2017-12-28T05:14:33.142Z,5.30
2017-12-28T05:16:59.864Z,5.20
2017-12-28T05:19:25.827Z,5.20
2017-12-28T05:21:51.816Z,5.20
2017-12-28T05:24:17.865Z,5.10
2017-12-28T05:26:44.573Z,5.00
2017-12-28T05:29:10.568Z,5.00
2017-12-28T05:31:36.537Z,4.90
2017-12-28T05:34:03.261Z,4.90
2017-12-28T05:36:29.276Z,4.80
2017-12-28T05:38:55.252Z,4.80
2017-12-28T05:41:21.304Z,5.00
2017-12-28T05:43:47.336Z,5.00
2017-12-28T05:46:13.322Z,4.90
2017-12-28T05:48:39.325Z,4.90
2017-12-28T05:51:12.344Z,4.90
2017-12-28T05:53:38.316Z,4.80
2017-12-28T05:56:05.450Z,4.80
2017-12-28T05:58:31.403Z,4.80
2017-12-28T06:00:57.392Z,4.80
2017-12-28T06:03:23.369Z,4.80
2017-12-28T06:05:49.545Z,4.80
2017-12-28T06:08:16.255Z,4.80
2017-12-28T06:10:42.235Z,4.80
2017-12-28T06:13:08.220Z,4.90
2017-12-28T06:15:34.228Z,4.80
2017-12-28T06:18:00.202Z,4.80
2017-12-28T06:20:26.192Z,4.80
2017-12-28T06:22:52.924Z,4.80
2017-12-28T06:25:18.897Z,4.80
2017-12-28T06:27:44.904Z,4.90
2017-12-28T06:30:10.876Z,4.90
2017-12-28T06:32:36.865Z,5.00
2017-12-28T06:35:02.851Z,5.00
2017-12-28T06:37:29.577Z,5.00
2017-12-28T06:39:56.355Z,4.90
2017-12-28T06:42:22.312Z,4.90
2017-12-28T06:44:48.292Z,5.00
2017-12-28T06:47:14.297Z,4.90
2017-12-28T06:49:41.023Z,4.80
2017-12-28T06:52:07.748Z,4.80
2017-12-28T06:57:06.436Z,4.70
2017-12-28T06:59:32.400Z,4.80
2017-12-28T07:01:59.156Z,4.80
2017-12-28T07:04:25.110Z,4.80
2017-12-28T07:06:51.072Z,5.00
2017-12-28T07:09:17.805Z,4.70
2017-12-28T07:11:43.768Z,4.60
2017-12-28T07:14:09.735Z,4.70
2017-12-28T07:16:35.692Z,4.60
2017-12-28T07:19:01.668Z,4.70
2017-12-28T07:21:27.636Z,4.60
2017-12-28T07:23:53.608Z,4.60
2017-12-28T07:26:19.579Z,4.60
2017-12-28T07:28:45.611Z,4.70
2017-12-28T07:31:11.589Z,4.60
2017-12-28T07:33:37.548Z,4.50
2017-12-28T07:36:03.536Z,4.50
2017-12-28T07:38:29.503Z,4.50
2017-12-28T07:40:55.489Z,4.60
2017-12-28T07:43:22.214Z,4.60
2017-12-28T07:45:48.176Z,4.50
2017-12-28T07:48:14.145Z,4.50
2017-12-28T07:50:40.107Z,4.60
2017-12-28T07:53:06.108Z,4.60
2017-12-28T07:55:32.820Z,4.70
2017-12-28T07:57:58.807Z,4.70
2017-12-28T08:00:24.781Z,4.70
2017-12-28T08:02:51.546Z,4.70
2017-12-28T08:05:18.251Z,4.60
2017-12-28T08:07:44.223Z,4.60
2017-12-28T08:10:10.216Z,4.60
2017-12-28T08:12:37.011Z,4.60
2017-12-28T08:15:03.005Z,4.60
2017-12-28T08:17:29.232Z,4.50
2017-12-28T08:19:55.226Z,4.60
2017-12-28T08:22:21.936Z,4.60
2017-12-28T08:24:47.924Z,4.50
2017-12-28T08:27:13.921Z,4.60
2017-12-28T08:29:39.896Z,4.60
2017-12-28T08:32:05.888Z,4.70
2017-12-28T08:34:31.863Z,4.70
2017-12-28T08:36:57.823Z,4.70
2017-12-28T08:39:23.780Z,4.70
2017-12-28T08:41:49.776Z,4.80
2017-12-28T08:44:15.748Z,4.80
2017-12-28T08:46:41.720Z,4.70
2017-12-28T08:49:07.700Z,4.60
2017-12-28T08:51:34.403Z,4.80
2017-12-28T08:54:00.401Z,4.80
2017-12-28T08:56:26.397Z,4.70
2017-12-28T08:58:52.378Z,4.80
2017-12-28T09:01:18.557Z,4.80
2017-12-28T09:03:44.536Z,4.80
2017-12-28T09:06:10.495Z,4.80
2017-12-28T09:08:36.464Z,4.80
2017-12-28T09:11:02.444Z,4.90
2017-12-28T09:13:29.186Z,5.00
2017-12-28T09:15:55.469Z,4.90
2017-12-28T09:18:21.489Z,5.00
2017-12-28T09:20:47.480Z,5.00
2017-12-28T09:23:13.500Z,5.00
2017-12-28T09:25:39.484Z,5.10
2017-12-28T09:28:05.455Z,5.00
2017-12-28T09:30:31.461Z,5.10
2017-12-28T09:32:57.460Z,5.20
2017-12-28T09:35:23.440Z,5.30
2017-12-28T09:37:49.416Z,5.10
2017-12-28T09:40:15.429Z,5.20
2017-12-28T09:42:41.424Z,5.10
2017-12-28T09:45:08.141Z,5.00
2017-12-28T09:47:34.116Z,4.90
2017-12-28T09:50:00.088Z,4.90
2017-12-28T09:52:26.063Z,5.10
2017-12-28T09:54:52.341Z,5.20
2017-12-28T09:57:18.310Z,5.20
2017-12-28T09:59:44.273Z,5.20
2017-12-28T10:02:10.267Z,5.20
2017-12-28T10:04:36.241Z,5.20
2017-12-28T10:07:02.964Z,5.30
2017-12-28T10:09:28.932Z,5.30
2017-12-28T10:11:54.892Z,5.40
2017-12-28T10:14:20.869Z,5.40
2017-12-28T10:16:47.164Z,5.40
2017-12-28T10:19:13.913Z,5.40
2017-12-28T10:21:40.636Z,5.30
2017-12-28T10:24:07.579Z,5.40
2017-12-28T10:26:33.556Z,5.40
2017-12-28T10:28:59.537Z,5.50
2017-12-28T10:31:27.268Z,5.60
2017-12-28T10:33:53.228Z,5.60
2017-12-28T10:36:19.936Z,5.60
2017-12-28T10:38:45.994Z,5.60
2017-12-28T10:41:12.700Z,5.70
2017-12-28T10:43:38.672Z,5.70
2017-12-28T10:46:04.660Z,5.70
2017-12-28T10:48:31.356Z,5.70
2017-12-28T10:50:57.344Z,5.70
2017-12-28T10:53:23.380Z,5.80
2017-12-28T10:55:49.365Z,5.70
2017-12-28T10:58:16.088Z,5.60
2017-12-28T11:00:42.100Z,5.60
2017-12-28T11:03:08.080Z,5.40
2017-12-28T11:05:34.043Z,5.50
2017-12-28T11:08:00.288Z,5.50
2017-12-28T11:10:26.248Z,5.50
2017-12-28T11:12:52.208Z,5.60
2017-12-28T11:15:18.192Z,5.60
2017-12-28T11:17:44.197Z,5.60
2017-12-28T11:20:10.162Z,5.60
2017-12-28T11:22:36.143Z,5.50
2017-12-28T11:25:02.115Z,5.60
2017-12-28T11:27:28.088Z,5.60
2017-12-28T11:29:54.063Z,5.60
2017-12-28T11:32:20.064Z,5.50
2017-12-28T11:34:46.024Z,5.40
2017-12-28T11:37:12.747Z,5.60
2017-12-28T11:39:39.092Z,5.50
2017-12-28T11:42:05.081Z,5.50
2017-12-28T11:44:31.074Z,5.60
2017-12-28T11:46:57.069Z,5.60
2017-12-28T11:49:23.780Z,5.70
2017-12-28T11:51:49.776Z,5.60
2017-12-28T11:54:15.751Z,5.60
2017-12-28T11:56:42.478Z,5.80
2017-12-28T11:59:14.533Z,5.80
2017-12-28T12:01:46.632Z,5.70
2017-12-28T12:04:12.615Z,5.70
2017-12-28T12:06:44.681Z,5.80
2017-12-28T12:09:16.664Z,5.80
2017-12-28T12:11:43.444Z,6.00
2017-12-28T12:14:09.415Z,6.00
2017-12-28T12:16:35.396Z,6.00
2017-12-28T12:19:01.356Z,5.80
2017-12-28T12:21:27.588Z,5.80
2017-12-28T12:23:55.462Z,5.70
2017-12-28T12:26:22.188Z,5.80
2017-12-28T12:28:48.207Z,5.80
2017-12-28T12:31:14.931Z,5.80
2017-12-28T12:33:41.001Z,5.80
2017-12-28T12:36:06.961Z,6.00
2017-12-28T12:38:32.946Z,6.00
2017-12-28T12:40:59.216Z,5.80
2017-12-28T12:43:25.222Z,5.80
2017-12-28T12:45:51.200Z,5.90
2017-12-28T12:48:18.005Z,5.70
2017-12-28T12:50:43.968Z,5.70
2017-12-28T12:53:10.684Z,5.70
2017-12-28T12:55:36.830Z,5.70
2017-12-28T12:58:03.560Z,5.60
2017-12-28T13:00:30.284Z,5.60
2017-12-28T13:02:56.290Z,5.60
2017-12-28T13:05:22.267Z,5.80
2017-12-28T13:07:48.239Z,5.70
2017-12-28T13:10:14.980Z,5.50
2017-12-28T13:12:40.944Z,5.50
2017-12-28T13:15:06.973Z,5.60
2017-12-28T13:17:33.084Z,5.60
2017-12-28T13:19:59.797Z,5.50
2017-12-28T13:22:25.768Z,5.50
2017-12-28T13:24:51.825Z,5.50
2017-12-28T13:27:17.848Z,5.50
2017-12-28T13:29:43.855Z,5.40
2017-12-28T13:32:09.835Z,5.40
2017-12-28T13:34:36.589Z,5.50
2017-12-28T13:37:02.551Z,5.50
2017-12-28T13:39:28.525Z,5.50
2017-12-28T13:41:54.484Z,5.50
2017-12-28T13:44:20.460Z,5.40
2017-12-28T13:46:47.156Z,5.30
2017-12-28T13:49:14.037Z,5.30
2017-12-28T13:51:40.873Z,5.40
2017-12-28T13:54:07.610Z,5.50
2017-12-28T13:56:34.315Z,5.50
2017-12-28T13:59:00.341Z,5.50
2017-12-28T14:01:26.305Z,5.50
2017-12-28T14:03:52.286Z,5.40
2017-12-28T14:06:18.624Z,5.40
2017-12-28T14:08:44.606Z,5.40
2017-12-28T14:11:10.586Z,5.40
2017-12-28T14:13:37.299Z,5.40
2017-12-28T14:16:03.276Z,5.40
2017-12-28T14:18:29.489Z,5.40
2017-12-28T14:20:55.439Z,5.40
2017-12-28T14:23:21.388Z,5.40
2017-12-28T14:25:48.101Z,5.30
2017-12-28T14:28:14.055Z,5.30
2017-12-28T14:30:40.026Z,5.30
2017-12-28T14:33:05.995Z,5.30
2017-12-28T14:35:31.967Z,5.50
2017-12-28T14:37:57.928Z,5.40
2017-12-28T14:40:24.272Z,5.40
2017-12-28T14:42:50.384Z,5.40
2017-12-28T14:45:16.350Z,5.30
2017-12-28T14:47:42.344Z,5.30
2017-12-28T14:50:09.081Z,5.40
2017-12-28T14:52:35.837Z,5.40
2017-12-28T14:55:02.560Z,5.40
2017-12-28T14:57:29.280Z,5.30
2017-12-28T14:59:55.260Z,5.30
2017-12-28T15:02:21.274Z,5.30
2017-12-28T15:04:47.256Z,5.30
2017-12-28T15:07:13.317Z,5.40
2017-12-28T15:09:39.308Z,5.40
2017-12-28T15:12:05.346Z,5.30
2017-12-28T15:14:39.197Z,5.30
2017-12-28T15:17:05.192Z,5.30
2017-12-28T15:19:31.921Z,5.40
2017-12-28T15:21:58.134Z,5.40
2017-12-28T15:24:24.833Z,5.50
2017-12-28T15:26:50.828Z,5.50
2017-12-28T15:29:16.806Z,5.50
2017-12-28T15:31:43.501Z,5.40
2017-12-28T15:34:09.481Z,5.40
2017-12-28T15:36:36.486Z,5.30
2017-12-28T15:39:02.452Z,5.30
2017-12-28T15:41:29.169Z,5.40
2017-12-28T15:43:55.181Z,5.40
2017-12-28T15:46:21.155Z,5.40
2017-12-28T15:48:47.165Z,5.40
2017-12-28T15:51:13.869Z,5.30
2017-12-28T15:53:40.608Z,5.20
2017-12-28T15:56:06.580Z,5.20
2017-12-28T15:58:32.565Z,5.30
2017-12-28T16:00:59.332Z,5.30
2017-12-28T16:03:25.298Z,5.30
2017-12-28T16:05:51.272Z,5.30
2017-12-28T16:08:17.260Z,5.30
2017-12-28T16:10:43.217Z,5.20
2017-12-28T16:13:09.193Z,5.20
2017-12-28T16:15:35.173Z,5.20
2017-12-28T16:18:01.149Z,5.20
2017-12-28T16:20:27.108Z,5.20
2017-12-28T16:22:53.072Z,5.30
2017-12-28T16:25:19.060Z,5.20
2017-12-28T16:27:45.058Z,5.30
2017-12-28T16:30:11.040Z,5.20
2017-12-28T16:32:37.012Z,5.20
2017-12-28T16:35:03.320Z,5.10
2017-12-28T16:37:30.029Z,5.10
2017-12-28T16:39:56.008Z,5.10
2017-12-28T16:42:22.009Z,5.10
2017-12-28T16:44:56.092Z,4.90
2017-12-28T16:47:22.431Z,4.90
2017-12-28T16:49:48.412Z,5.00
2017-12-28T16:52:14.375Z,5.00
2017-12-28T16:54:41.068Z,4.90
2017-12-28T16:57:07.065Z,4.90
2017-12-28T16:59:33.048Z,4.90
2017-12-28T17:01:59.808Z,4.80
2017-12-28T17:04:26.561Z,4.80
2017-12-28T17:06:52.544Z,4.80
2017-12-28T17:09:18.533Z,4.80
2017-12-28T17:11:44.528Z,4.60
2017-12-28T17:14:10.535Z,4.70
2017-12-28T17:16:37.262Z,4.80
2017-12-28T17:19:04.322Z,4.70
2017-12-28T17:21:31.047Z,4.70
2017-12-28T17:23:57.022Z,4.70
2017-12-28T17:26:23.004Z,4.70
2017-12-28T17:28:49.778Z,4.80
2017-12-28T17:31:15.756Z,4.70
2017-12-28T17:33:42.476Z,4.70
2017-12-28T17:36:09.259Z,4.70
2017-12-28T17:38:35.298Z,4.70
2017-12-28T17:41:01.264Z,4.70
2017-12-28T17:43:27.232Z,4.70
2017-12-28T17:45:53.206Z,4.70
2017-12-28T17:48:19.212Z,4.50
2017-12-28T17:50:45.394Z,4.50
2017-12-28T17:53:11.391Z,4.60
2017-12-28T17:55:45.238Z,4.50
2017-12-28T17:58:11.226Z,4.50
2017-12-28T18:00:37.989Z,4.40
2017-12-28T18:03:03.976Z,4.40
2017-12-28T18:05:30.707Z,4.50
2017-12-28T18:07:56.720Z,4.50
2017-12-28T18:10:22.700Z,4.50
2017-12-28T18:12:48.662Z,4.40
2017-12-28T18:15:14.653Z,4.40
2017-12-28T18:17:40.629Z,4.40
2017-12-28T18:20:07.392Z,4.40
2017-12-28T18:22:33.376Z,4.40
2017-12-28T18:24:59.336Z,4.30
2017-12-28T18:27:25.337Z,4.20
2017-12-28T18:29:51.597Z,4.40
2017-12-28T18:32:17.582Z,4.40
2017-12-28T18:34:44.350Z,4.50
2017-12-28T18:37:10.397Z,4.50
2017-12-28T18:39:36.422Z,4.40
2017-12-28T18:42:02.428Z,4.40
2017-12-28T18:44:28.412Z,4.50
2017-12-28T18:46:55.192Z,4.40
2017-12-28T18:49:21.205Z,4.40
2017-12-28T18:51:47.337Z,4.40
2017-12-28T18:54:13.302Z,4.40
2017-12-28T18:56:40.771Z,4.50
2017-12-28T18:59:07.496Z,4.50
2017-12-28T19:01:33.479Z,4.40
2017-12-28T19:03:59.463Z,4.50
2017-12-28T19:06:26.183Z,4.50
2017-12-28T19:08:52.157Z,4.50
2017-12-28T19:11:18.140Z,4.50
2017-12-28T19:13:44.859Z,4.50
2017-12-28T19:16:10.847Z,4.50
2017-12-28T19:18:36.824Z,4.40
2017-12-28T19:21:03.636Z,4.40
2017-12-28T19:23:29.636Z,4.40
2017-12-28T19:25:55.601Z,4.50
2017-12-28T19:28:21.560Z,4.50
2017-12-28T19:30:47.696Z,4.50
2017-12-28T19:33:13.663Z,4.50
2017-12-28T19:35:39.629Z,4.50
2017-12-28T19:38:05.712Z,4.50
2017-12-28T19:40:32.452Z,4.50
2017-12-28T19:42:59.221Z,4.40
2017-12-28T19:45:25.784Z,4.40
2017-12-28T19:47:51.745Z,4.50
2017-12-28T19:50:17.784Z,4.50
2017-12-28T19:52:44.600Z,4.40
2017-12-28T19:55:10.586Z,4.40
2017-12-28T19:57:36.592Z,4.40
2017-12-28T20:00:02.579Z,4.40
2017-12-28T20:02:29.526Z,4.30
2017-12-28T20:04:56.245Z,4.40
2017-12-28T20:07:22.233Z,4.40
2017-12-28T20:09:48.217Z,4.40
2017-12-28T20:12:14.932Z,4.50
2017-12-28T20:14:40.908Z,4.50
2017-12-28T20:17:07.318Z,4.50
2017-12-28T20:19:40.240Z,4.40
2017-12-28T20:22:06.203Z,4.50
2017-12-28T20:24:32.945Z,4.40
2017-12-28T20:26:59.664Z,4.40
2017-12-28T20:29:25.644Z,4.40
2017-12-28T20:31:51.920Z,4.40
2017-12-28T20:34:17.886Z,4.40
2017-12-28T20:36:43.885Z,4.40
2017-12-28T20:39:10.905Z,4.50
2017-12-28T20:41:36.876Z,4.40
2017-12-28T20:44:02.877Z,4.50
2017-12-28T20:46:30.098Z,4.50
2017-12-28T20:48:56.053Z,4.50
2017-12-28T20:51:22.025Z,4.40
2017-12-28T20:53:48.012Z,4.40
2017-12-28T20:56:13.977Z,4.40
2017-12-28T20:58:40.017Z,4.40
2017-12-28T21:01:05.969Z,4.40
2017-12-28T21:03:31.932Z,4.40
2017-12-28T21:05:57.914Z,4.50
2017-12-28T21:08:24.700Z,4.50
2017-12-28T21:10:50.656Z,4.40
2017-12-28T21:13:17.411Z,4.50
2017-12-28T21:15:43.426Z,4.40
2017-12-28T21:18:09.417Z,4.50
2017-12-28T21:20:35.403Z,4.50
2017-12-28T21:23:01.369Z,4.40
2017-12-28T21:25:28.100Z,4.40
2017-12-28T21:27:54.945Z,4.40
2017-12-28T21:30:20.913Z,4.40
2017-12-28T21:32:46.872Z,4.40
2017-12-28T21:35:12.853Z,4.40
2017-12-28T21:37:38.824Z,4.40
2017-12-28T21:40:04.804Z,4.40
2017-12-28T21:42:30.787Z,4.50
2017-12-28T21:44:57.476Z,4.70
2017-12-28T21:47:23.489Z,4.70
2017-12-28T21:49:49.440Z,4.50
2017-12-28T21:52:15.413Z,4.50
2017-12-28T21:54:41.384Z,4.40
2017-12-28T21:57:07.356Z,4.40
2017-12-28T21:59:33.324Z,4.40
2017-12-28T22:01:59.289Z,4.50
2017-12-28T22:04:25.232Z,4.50
2017-12-28T22:06:51.188Z,4.50
2017-12-28T22:09:17.170Z,4.40
2017-12-28T22:11:43.145Z,4.50
2017-12-28T22:14:09.153Z,4.50
2017-12-28T22:16:35.119Z,4.50
2017-12-28T22:19:01.089Z,4.50
2017-12-28T22:21:27.080Z,4.50
2017-12-28T22:23:53.085Z,4.50
2017-12-28T22:26:19.033Z,4.50
2017-12-28T22:28:45.006Z,4.50
2017-12-28T22:31:11.704Z,4.50
2017-12-28T22:33:37.691Z,4.50
2017-12-28T22:36:03.694Z,4.50
2017-12-28T22:38:29.705Z,4.40
2017-12-28T22:40:56.422Z,4.50
2017-12-28T22:43:22.572Z,4.50
2017-12-28T22:45:49.316Z,4.50
2017-12-28T22:48:16.389Z,4.50
2017-12-28T22:50:42.368Z,4.40
2017-12-28T22:53:08.336Z,4.40
2017-12-28T22:55:34.296Z,4.50
2017-12-28T22:58:00.294Z,4.60
2017-12-28T23:00:26.279Z,4.60
2017-12-28T23:02:52.982Z,4.40
2017-12-28T23:05:18.952Z,4.40
2017-12-28T23:07:44.925Z,4.40
2017-12-28T23:10:10.890Z,4.50
2017-12-28T23:12:36.869Z,4.50
2017-12-28T23:15:02.833Z,4.50
2017-12-28T23:17:28.808Z,4.60
2017-12-28T23:19:54.816Z,4.50
2017-12-28T23:22:20.786Z,4.60
2017-12-28T23:24:47.511Z,4.50
2017-12-28T23:27:14.270Z,4.50
2017-12-28T23:29:40.995Z,4.50
2017-12-28T23:32:07.716Z,4.40
2017-12-28T23:34:33.868Z,4.40
2017-12-28T23:37:00.593Z,4.40
2017-12-28T23:39:27.324Z,4.40
2017-12-28T23:41:53.321Z,4.30
2017-12-28T23:44:19.322Z,4.40
2017-12-28T23:46:45.344Z,4.50
2017-12-28T23:49:11.693Z,4.40
2017-12-28T23:51:37.669Z,4.50
2017-12-28T23:54:03.620Z,4.40
2017-12-28T23:56:29.883Z,4.40
2017-12-28T23:58:55.831Z,4.40
